Time;durP1;ratioP1;P1;durP2;ratioP2;P2;SDS_P1;SDS_P2;PMS_P1;PMS_P2;Temp;Humidity;BMP_temperature;BMP_pressure;BME280_temperature;BME280_humidity;BME280_pressure;Samples;Min_cycle;Max_cycle;Signal;HPM_P1;HPM_P2
2022/08/07 00:01:36;;;;;;;9.15;5.78;;;;;;;;;;10450483;28;20025;-74
2022/08/07 00:06:36;;;;;;;6.53;5.75;;;;;;;;;;10479574;28;20032;-75
2022/08/07 00:11:37;;;;;;;10.95;4.95;;;;;;;;;;10464391;28;20179;-74
2022/08/07 00:16:37;;;;;;;6.97;5.30;;;;;;;;;;10454534;28;20025;-74
2022/08/07 00:21:37;;;;;;;5.43;4.80;;;;;;;;;;10466805;28;20027;-74
2022/08/07 00:26:37;;;;;;;6.28;5.35;;;;;;;;;;10479215;28;20020;-74
2022/08/07 00:31:38;;;;;;;6.53;5.07;;;;;;;;;;10485227;28;20021;-74
2022/08/07 00:36:38;;;;;;;8.95;6.38;;;;;;;;;;10486981;28;20494;-76
2022/08/07 00:41:38;;;;;;;8.32;5.80;;;;;;;;;;10490076;28;20066;-75
2022/08/07 00:46:39;;;;;;;8.52;5.60;;;;;;;;;;10458364;28;20021;-75
2022/08/07 00:51:39;;;;;;;6.87;5.23;;;;;;;;;;10483483;28;20024;-74
2022/08/07 00:56:40;;;;;;;10.95;6.00;;;;;;;;;;10474390;28;20268;-75
2022/08/07 01:01:40;;;;;;;10.50;5.97;;;;;;;;;;10475148;28;20478;-74
2022/08/07 01:06:40;;;;;;;6.03;5.13;;;;;;;;;;10475610;28;20031;-76
2022/08/07 01:11:41;;;;;;;8.98;5.45;;;;;;;;;;10478674;28;20506;-74
2022/08/07 01:16:41;;;;;;;6.53;5.47;;;;;;;;;;10458511;28;20465;-74
2022/08/07 01:21:42;;;;;;;7.60;5.25;;;;;;;;;;10457944;28;20096;-74
2022/08/07 01:26:42;;;;;;;7.50;5.82;;;;;;;;;;10484189;28;20108;-74
2022/08/07 01:31:43;;;;;;;8.77;6.30;;;;;;;;;;10470372;28;20032;-74
2022/08/07 01:36:44;;;;;;;7.10;5.70;;;;;;;;;;10486259;28;20025;-74
2022/08/07 01:41:44;;;;;;;8.25;5.30;;;;;;;;;;10476957;28;20559;-73
2022/08/07 01:46:45;;;;;;;6.03;5.20;;;;;;;;;;10473592;28;20009;-73
2022/08/07 01:51:46;;;;;;;7.87;5.97;;;;;;;;;;10455176;28;20108;-73
2022/08/07 01:56:59;;;;;;;6.85;5.40;;;;;;;;;;10439737;28;20032;-73
2022/08/07 02:02:04;;;;;;;8.02;5.63;;;;;;;;;;10488965;28;20054;-74
2022/08/07 02:07:05;;;;;;;7.00;5.68;;;;;;;;;;10489394;28;20075;-73
2022/08/07 02:12:16;;;;;;;6.55;5.50;;;;;;;;;;10456662;28;20048;-73
2022/08/07 02:17:17;;;;;;;8.50;6.90;;;;;;;;;;10473438;28;20036;-74
2022/08/07 02:22:20;;;;;;;13.10;6.78;;;;;;;;;;10455291;28;20020;-74
2022/08/07 02:27:22;;;;;;;9.82;7.22;;;;;;;;;;10453722;28;20021;-74
2022/08/07 02:32:23;;;;;;;11.25;7.78;;;;;;;;;;10470487;28;20409;-73
2022/08/07 02:37:24;;;;;;;9.38;7.03;;;;;;;;;;10457801;28;20104;-74
2022/08/07 02:42:24;;;;;;;10.70;8.32;;;;;;;;;;10453249;28;20024;-73
2022/08/07 02:47:25;;;;;;;10.88;8.05;;;;;;;;;;10477343;28;20111;-74
2022/08/07 02:52:29;;;;;;;11.73;8.27;;;;;;;;;;10453112;28;20021;-73
2022/08/07 02:57:30;;;;;;;13.77;8.98;;;;;;;;;;10470615;28;20025;-73
2022/08/07 03:02:30;;;;;;;14.23;7.95;;;;;;;;;;10474369;28;20029;-73
2022/08/07 03:07:31;;;;;;;10.98;7.30;;;;;;;;;;10469509;28;20032;-73
2022/08/07 03:12:32;;;;;;;13.88;7.28;;;;;;;;;;10453309;28;20029;-73
2022/08/07 03:17:33;;;;;;;9.23;6.47;;;;;;;;;;10453006;28;20025;-73
2022/08/07 03:22:34;;;;;;;10.00;7.07;;;;;;;;;;10478671;28;20074;-73
2022/08/07 03:27:35;;;;;;;15.27;7.35;;;;;;;;;;10468120;28;20490;-73
2022/08/07 03:32:39;;;;;;;9.80;6.63;;;;;;;;;;10470324;28;20077;-73
2022/08/07 03:37:41;;;;;;;10.70;7.63;;;;;;;;;;10471790;28;20028;-74
2022/08/07 03:42:42;;;;;;;10.52;7.38;;;;;;;;;;10476162;28;20044;-73
2022/08/07 03:47:42;;;;;;;11.32;7.80;;;;;;;;;;10480960;28;20055;-73
2022/08/07 03:52:43;;;;;;;11.57;7.72;;;;;;;;;;10467816;28;20029;-75
2022/08/07 03:57:44;;;;;;;11.57;7.43;;;;;;;;;;10467789;28;20017;-74
2022/08/07 04:02:44;;;;;;;9.88;7.35;;;;;;;;;;10474565;28;20029;-74
2022/08/07 04:07:45;;;;;;;13.10;8.23;;;;;;;;;;10468096;28;20056;-73
2022/08/07 04:12:47;;;;;;;13.38;6.90;;;;;;;;;;10469582;28;20024;-74
2022/08/07 04:17:47;;;;;;;9.68;7.25;;;;;;;;;;10449583;28;20106;-74
2022/08/07 04:22:48;;;;;;;11.23;6.65;;;;;;;;;;10468022;28;20021;-75
2022/08/07 04:27:48;;;;;;;11.82;7.88;;;;;;;;;;10451046;28;20024;-73
2022/08/07 04:32:49;;;;;;;14.80;8.23;;;;;;;;;;10451378;28;20410;-73
2022/08/07 04:37:49;;;;;;;11.37;7.03;;;;;;;;;;10449908;28;20049;-74
2022/08/07 04:42:49;;;;;;;9.68;6.90;;;;;;;;;;10451382;28;20052;-74
2022/08/07 04:47:54;;;;;;;10.90;7.28;;;;;;;;;;10471410;28;20139;-73
2022/08/07 04:52:58;;;;;;;10.00;6.70;;;;;;;;;;10434016;28;20036;-73
2022/08/07 04:58:00;;;;;;;12.82;7.05;;;;;;;;;;10450853;28;20486;-75
2022/08/07 05:03:16;;;;;;;11.00;7.38;;;;;;;;;;10450595;28;20021;-75
2022/08/07 05:08:19;;;;;;;13.00;7.32;;;;;;;;;;10458264;28;20047;-73
2022/08/07 05:13:25;;;;;;;10.95;6.50;;;;;;;;;;10458367;28;20392;-73
2022/08/07 05:18:29;;;;;;;10.55;7.63;;;;;;;;;;10483301;28;20064;-74
2022/08/07 05:23:44;;;;;;;12.15;7.10;;;;;;;;;;10476425;28;20021;-74
2022/08/07 05:28:45;;;;;;;14.00;6.95;;;;;;;;;;10494724;28;20478;-74
2022/08/07 05:33:48;;;;;;;11.65;6.38;;;;;;;;;;10499089;28;20025;-74
2022/08/07 05:38:48;;;;;;;14.30;7.20;;;;;;;;;;10457558;28;20487;-75
2022/08/07 05:43:51;;;;;;;13.70;6.85;;;;;;;;;;10457226;28;20120;-75
2022/08/07 05:48:51;;;;;;;7.93;6.25;;;;;;;;;;10455633;28;20045;-75
2022/08/07 05:53:52;;;;;;;9.95;6.65;;;;;;;;;;10469888;28;20119;-73
2022/08/07 05:58:52;;;;;;;11.15;7.00;;;;;;;;;;10454957;28;20013;-73
2022/08/07 06:03:53;;;;;;;9.45;6.15;;;;;;;;;;10454877;28;20068;-75
2022/08/07 06:08:53;;;;;;;7.65;5.18;;;;;;;;;;10454521;28;20045;-73
2022/08/07 06:13:54;;;;;;;10.03;5.37;;;;;;;;;;10455188;28;20033;-73
2022/08/07 06:18:54;;;;;;;5.87;4.43;;;;;;;;;;10454227;28;20083;-74
2022/08/07 06:23:55;;;;;;;4.93;3.90;;;;;;;;;;10472437;28;20025;-74
2022/08/07 06:28:56;;;;;;;5.55;4.25;;;;;;;;;;10474756;28;20039;-74
2022/08/07 06:33:57;;;;;;;7.45;4.93;;;;;;;;;;10447510;28;20048;-74
2022/08/07 06:38:57;;;;;;;6.07;4.45;;;;;;;;;;10471504;28;20032;-73
2022/08/07 06:43:59;;;;;;;10.15;4.38;;;;;;;;;;10470367;28;20055;-73
2022/08/07 06:48:59;;;;;;;9.68;4.55;;;;;;;;;;10457026;28;20604;-74
2022/08/07 06:54:03;;;;;;;7.47;4.50;;;;;;;;;;10484638;28;20120;-75
2022/08/07 06:59:08;;;;;;;10.45;4.70;;;;;;;;;;10475690;28;20064;-74
2022/08/07 07:04:08;;;;;;;5.03;4.20;;;;;;;;;;10481941;28;20458;-74
2022/08/07 07:09:35;;;;;;;6.00;4.57;;;;;;;;;;10452216;28;20068;-74
2022/08/07 07:14:54;;;;;;;6.63;4.75;;;;;;;;;;10449834;28;20040;-74
2022/08/07 07:19:56;;;;;;;6.93;3.70;;;;;;;;;;10469714;28;20039;-74
2022/08/07 07:24:57;;;;;;;8.35;4.20;;;;;;;;;;10452233;28;20033;-74
2022/08/07 07:29:59;;;;;;;8.98;3.75;;;;;;;;;;10483580;28;20074;-73
2022/08/07 07:35:01;;;;;;;10.13;4.43;;;;;;;;;;10450984;28;20383;-74
2022/08/07 07:40:03;;;;;;;4.35;3.95;;;;;;;;;;10481747;28;20024;-73
2022/08/07 07:45:04;;;;;;;5.70;3.40;;;;;;;;;;10473614;28;20048;-73
2022/08/07 07:50:05;;;;;;;4.50;3.55;;;;;;;;;;10477563;28;20400;-73
2022/08/07 07:55:06;;;;;;;7.82;4.20;;;;;;;;;;10451943;28;20064;-73
2022/08/07 08:00:07;;;;;;;5.25;3.17;;;;;;;;;;10468763;28;20076;-74
2022/08/07 08:05:08;;;;;;;7.60;4.72;;;;;;;;;;10451648;28;20374;-74
2022/08/07 08:10:09;;;;;;;9.20;5.35;;;;;;;;;;10483628;28;20067;-74
2022/08/07 08:15:10;;;;;;;10.10;6.20;;;;;;;;;;10450090;28;20040;-73
2022/08/07 08:20:13;;;;;;;13.00;5.93;;;;;;;;;;10443157;28;20052;-73
2022/08/07 08:30:33;;;;;;;6.55;3.75;;;;;;;;;;10465492;28;20107;-74
2022/08/07 08:35:35;;;;;;;5.85;4.00;;;;;;;;;;10474922;28;20108;-74
2022/08/07 08:40:40;;;;;;;7.57;3.92;;;;;;;;;;10458869;28;20033;-74
2022/08/07 08:45:47;;;;;;;7.35;3.95;;;;;;;;;;10475693;28;20040;-74
2022/08/07 08:50:51;;;;;;;4.38;3.45;;;;;;;;;;10480705;28;20479;-74
2022/08/07 08:56:07;;;;;;;6.00;3.78;;;;;;;;;;10457321;28;20521;-75
2022/08/07 09:01:27;;;;;;;4.68;3.88;;;;;;;;;;10447475;28;20044;-73
2022/08/07 09:06:27;;;;;;;4.25;3.85;;;;;;;;;;10449315;28;20033;-74
2022/08/07 09:11:40;;;;;;;4.97;3.58;;;;;;;;;;10484115;28;20060;-75
2022/08/07 09:16:47;;;;;;;3.80;3.22;;;;;;;;;;10458908;28;20035;-74
2022/08/07 09:22:06;;;;;;;4.45;3.80;;;;;;;;;;10478780;28;20108;-73
2022/08/07 09:27:16;;;;;;;10.23;4.18;;;;;;;;;;10477446;28;20025;-74
2022/08/07 09:32:22;;;;;;;4.93;3.17;;;;;;;;;;10456120;28;20483;-74
2022/08/07 09:37:42;;;;;;;18.40;6.70;;;;;;;;;;10457465;28;20017;-73
2022/08/07 09:42:46;;;;;;;13.02;6.88;;;;;;;;;;10455569;28;20483;-74
2022/08/07 09:48:08;;;;;;;31.40;10.20;;;;;;;;;;10454169;28;20419;-77
2022/08/07 09:53:10;;;;;;;4.40;3.20;;;;;;;;;;10455358;28;20021;-74
2022/08/07 09:58:16;;;;;;;4.20;2.97;;;;;;;;;;10444033;28;20032;-74
2022/08/07 10:03:29;;;;;;;3.38;2.78;;;;;;;;;;10481319;28;20016;-74
2022/08/07 10:08:31;;;;;;;3.92;3.00;;;;;;;;;;10475829;28;20057;-74
2022/08/07 10:13:53;;;;;;;5.63;3.03;;;;;;;;;;10455664;28;20033;-73
2022/08/07 10:19:02;;;;;;;6.00;3.05;;;;;;;;;;10454211;28;20021;-73
2022/08/07 10:24:14;;;;;;;7.38;3.40;;;;;;;;;;10471825;28;20497;-73
2022/08/07 10:29:18;;;;;;;6.53;3.47;;;;;;;;;;10483293;28;20020;-73
2022/08/07 10:34:38;;;;;;;7.97;3.88;;;;;;;;;;10473569;28;20021;-73
2022/08/07 10:39:49;;;;;;;4.15;3.60;;;;;;;;;;10453134;28;20025;-73
2022/08/07 10:45:00;;;;;;;5.25;3.63;;;;;;;;;;10470410;28;20057;-73
2022/08/07 10:50:12;;;;;;;4.53;3.60;;;;;;;;;;10474244;28;20048;-73
2022/08/07 10:55:42;;;;;;;4.28;3.42;;;;;;;;;;10452329;28;20064;-74
2022/08/07 11:00:45;;;;;;;4.22;3.17;;;;;;;;;;10443332;28;20170;-72
2022/08/07 11:06:01;;;;;;;5.00;3.90;;;;;;;;;;10435690;28;20033;-75
2022/08/07 11:11:07;;;;;;;7.67;4.20;;;;;;;;;;10466763;28;20106;-75
2022/08/07 11:16:10;;;;;;;11.20;4.70;;;;;;;;;;10452823;28;20075;-74
2022/08/07 11:21:23;;;;;;;15.32;4.78;;;;;;;;;;10453138;28;20413;-76
2022/08/07 11:26:47;;;;;;;9.27;4.65;;;;;;;;;;10475595;28;20029;-75
2022/08/07 11:31:54;;;;;;;7.88;3.95;;;;;;;;;;10451214;28;20025;-73
2022/08/07 11:36:54;;;;;;;8.27;5.10;;;;;;;;;;10474575;28;20410;-74
2022/08/07 11:41:58;;;;;;;5.38;3.72;;;;;;;;;;10473669;28;20032;-74
2022/08/07 11:47:16;;;;;;;7.32;4.43;;;;;;;;;;10451878;28;20520;-74
2022/08/07 11:52:33;;;;;;;13.15;5.13;;;;;;;;;;10473302;28;20028;-74
2022/08/07 11:57:34;;;;;;;;;;;;;;;;;;10481969;28;20025;-75
2022/08/07 12:02:34;;;;;;;9.65;4.65;;;;;;;;;;10450376;28;19911;-74
2022/08/07 12:07:41;;;;;;;8.48;4.75;;;;;;;;;;10468725;28;20025;-73
2022/08/07 12:12:41;;;;;;;;;;;;;;;;;;10449899;28;20029;-74
2022/08/07 12:17:46;;;;;;;6.73;4.87;;;;;;;;;;10451288;28;19974;-73
2022/08/07 12:23:11;;;;;;;6.95;4.93;;;;;;;;;;10466113;28;20093;-77
2022/08/07 12:28:16;;;;;;;6.10;4.75;;;;;;;;;;10467679;28;20037;-74
2022/08/07 12:33:18;;;;;;;6.15;4.80;;;;;;;;;;10471070;28;20105;-74
2022/08/07 12:38:19;;;;;;;7.55;5.10;;;;;;;;;;10450947;28;20028;-75
2022/08/07 12:43:22;;;;;;;7.95;4.72;;;;;;;;;;10466210;28;20032;-74
2022/08/07 12:48:35;;;;;;;7.97;4.25;;;;;;;;;;10465939;28;20029;-74
2022/08/07 12:53:50;;;;;;;5.75;3.63;;;;;;;;;;10449485;28;20409;-75
2022/08/07 12:58:51;;;;;;;5.63;4.07;;;;;;;;;;10479513;28;20027;-75
2022/08/07 13:03:58;;;;;;;5.72;4.10;;;;;;;;;;10458769;28;20384;-74
2022/08/07 13:08:58;;;;;;;;;;;;;;;;;;10469282;28;20103;-74
2022/08/07 13:14:07;;;;;;;6.80;4.80;;;;;;;;;;10461588;28;19951;-74
2022/08/07 13:19:29;;;;;;;6.45;4.53;;;;;;;;;;10434547;28;20017;-74
2022/08/07 13:24:35;;;;;;;11.40;4.57;;;;;;;;;;10467918;28;20096;-74
2022/08/07 13:29:42;;;;;;;6.47;4.67;;;;;;;;;;10450654;28;20029;-74
2022/08/07 13:34:49;;;;;;;6.30;4.63;;;;;;;;;;10455637;28;20858;-74
2022/08/07 13:39:50;;;;;;;8.23;4.63;;;;;;;;;;10455470;28;20016;-75
2022/08/07 13:44:51;;;;;;;5.70;4.90;;;;;;;;;;10483116;28;20463;-76
2022/08/07 13:49:53;;;;;;;9.38;5.65;;;;;;;;;;10485278;28;20103;-75
2022/08/07 13:54:54;;;;;;;7.57;4.95;;;;;;;;;;10460175;28;20104;-75
2022/08/07 13:59:56;;;;;;;7.82;4.72;;;;;;;;;;10476484;28;20025;-75
2022/08/07 14:04:58;;;;;;;8.13;4.75;;;;;;;;;;10469871;28;20016;-74
2022/08/07 14:09:59;;;;;;;8.45;4.93;;;;;;;;;;10454500;28;20049;-74
2022/08/07 14:15:01;;;;;;;7.43;4.82;;;;;;;;;;10456491;28;20033;-74
2022/08/07 14:20:14;;;;;;;10.15;4.90;;;;;;;;;;10455842;28;20078;-75
2022/08/07 14:25:15;;;;;;;6.55;4.75;;;;;;;;;;10454007;28;20453;-75
2022/08/07 14:30:16;;;;;;;5.05;4.38;;;;;;;;;;10454962;28;20162;-74
2022/08/07 14:35:19;;;;;;;7.43;5.68;;;;;;;;;;10454271;28;20025;-75
2022/08/07 14:40:21;;;;;;;10.77;6.43;;;;;;;;;;10445916;28;20095;-74
2022/08/07 14:45:24;;;;;;;8.23;5.82;;;;;;;;;;10484949;28;20559;-75
2022/08/07 14:50:26;;;;;;;8.38;4.82;;;;;;;;;;10471036;28;20024;-75
2022/08/07 14:55:30;;;;;;;8.63;5.68;;;;;;;;;;10472985;28;20028;-74
2022/08/07 15:00:33;;;;;;;7.57;5.78;;;;;;;;;;10444218;28;20027;-75
2022/08/07 15:05:33;;;;;;;8.73;5.53;;;;;;;;;;10470759;28;20103;-74
2022/08/07 15:10:35;;;;;;;8.20;4.82;;;;;;;;;;10472066;28;20578;-73
2022/08/07 15:15:41;;;;;;;7.85;4.90;;;;;;;;;;10472071;28;20485;-74
2022/08/07 15:20:43;;;;;;;9.63;6.10;;;;;;;;;;10467734;28;20017;-75
2022/08/07 15:25:45;;;;;;;6.75;5.10;;;;;;;;;;10477157;28;20062;-74
2022/08/07 15:30:46;;;;;;;10.02;5.25;;;;;;;;;;10472645;28;20164;-74
2022/08/07 15:35:51;;;;;;;9.90;5.88;;;;;;;;;;10452577;28;20112;-74
2022/08/07 15:40:52;;;;;;;13.10;5.82;;;;;;;;;;10450638;28;20029;-74
2022/08/07 15:45:53;;;;;;;8.00;5.78;;;;;;;;;;10452001;28;20179;-73
2022/08/07 15:50:55;;;;;;;8.07;5.47;;;;;;;;;;10452234;28;20103;-74
2022/08/07 15:56:01;;;;;;;8.82;5.93;;;;;;;;;;10451457;28;20060;-75
2022/08/07 16:01:04;;;;;;;7.93;5.75;;;;;;;;;;10450326;28;20050;-74
2022/08/07 16:06:04;;;;;;;7.82;5.50;;;;;;;;;;10470957;28;20509;-73
2022/08/07 16:11:06;;;;;;;6.97;5.28;;;;;;;;;;10474462;28;20099;-73
2022/08/07 16:16:25;;;;;;;10.52;6.03;;;;;;;;;;10473908;28;20487;-76
2022/08/07 16:21:33;;;;;;;7.68;5.50;;;;;;;;;;10480038;28;20029;-75
2022/08/07 16:26:33;;;;;;;;;;;;;;;;;;10468282;28;20021;-75
2022/08/07 16:31:39;;;;;;;8.90;6.10;;;;;;;;;;10458039;28;19911;-76
2022/08/07 16:36:39;;;;;;;8.05;5.75;;;;;;;;;;10467374;28;20178;-74
2022/08/07 16:41:51;;;;;;;9.35;6.15;;;;;;;;;;10450617;28;20159;-73
2022/08/07 16:46:51;;;;;;;12.85;7.03;;;;;;;;;;10450403;28;20025;-73
2022/08/07 16:52:01;;;;;;;8.23;6.13;;;;;;;;;;10467503;28;20025;-73
2022/08/07 16:57:01;;;;;;;10.95;6.22;;;;;;;;;;10438742;28;20548;-74
2022/08/07 17:02:07;;;;;;;9.55;6.60;;;;;;;;;;10458421;28;20115;-75
2022/08/07 17:07:26;;;;;;;10.70;6.55;;;;;;;;;;10485092;28;20029;-74
2022/08/07 17:12:40;;;;;;;8.55;6.05;;;;;;;;;;10485188;28;20127;-74
2022/08/07 17:17:47;;;;;;;9.18;6.25;;;;;;;;;;10456207;28;20175;-74
2022/08/07 17:22:54;;;;;;;10.48;6.45;;;;;;;;;;10457148;28;20039;-75
2022/08/07 17:28:13;;;;;;;10.52;6.05;;;;;;;;;;10456291;28;20066;-73
2022/08/07 17:33:23;;;;;;;7.97;5.53;;;;;;;;;;10482905;28;20072;-74
2022/08/07 17:38:27;;;;;;;9.68;5.40;;;;;;;;;;10472976;28;20017;-73
2022/08/07 17:43:30;;;;;;;9.13;6.18;;;;;;;;;;10456208;28;20446;-74
2022/08/07 17:48:32;;;;;;;7.72;5.88;;;;;;;;;;10479779;28;20129;-74
2022/08/07 17:53:55;;;;;;;9.32;5.93;;;;;;;;;;10481206;28;20032;-73
2022/08/07 17:58:56;;;;;;;8.65;6.07;;;;;;;;;;10485656;28;20032;-73
2022/08/07 18:04:19;;;;;;;9.45;6.35;;;;;;;;;;10471440;28;20013;-73
2022/08/07 18:09:21;;;;;;;8.63;7.10;;;;;;;;;;10435556;28;20590;-75
2022/08/07 18:14:25;;;;;;;10.00;6.95;;;;;;;;;;10474207;28;20179;-74
2022/08/07 18:19:35;;;;;;;11.68;7.65;;;;;;;;;;10486527;28;20032;-77
2022/08/07 18:24:45;;;;;;;11.43;6.88;;;;;;;;;;10474027;28;20070;-74
2022/08/07 18:29:54;;;;;;;12.02;7.40;;;;;;;;;;10479014;28;20048;-74
2022/08/07 18:35:14;;;;;;;11.77;7.80;;;;;;;;;;10461435;28;20020;-73
2022/08/07 18:40:26;;;;;;;9.07;7.18;;;;;;;;;;10470621;28;20013;-76
2022/08/07 18:45:31;;;;;;;17.80;8.73;;;;;;;;;;10470733;28;20035;-74
2022/08/07 18:50:44;;;;;;;8.88;6.50;;;;;;;;;;10477294;28;20024;-75
2022/08/07 18:55:53;;;;;;;10.45;7.15;;;;;;;;;;10470042;28;20021;-75
2022/08/07 19:01:05;;;;;;;9.00;7.20;;;;;;;;;;10453792;28;20453;-74
2022/08/07 19:06:16;;;;;;;9.85;7.15;;;;;;;;;;10469565;28;20029;-75
2022/08/07 19:11:19;;;;;;;11.88;7.90;;;;;;;;;;10451816;28;20049;-75
2022/08/07 19:16:31;;;;;;;9.57;7.40;;;;;;;;;;10468608;28;20082;-74
2022/08/07 19:21:44;;;;;;;9.70;6.95;;;;;;;;;;10487410;28;20013;-74
2022/08/07 19:26:48;;;;;;;12.38;7.22;;;;;;;;;;10468985;28;20082;-75
2022/08/07 19:31:52;;;;;;;10.48;7.75;;;;;;;;;;10469834;28;20032;-75
2022/08/07 19:36:55;;;;;;;12.27;7.85;;;;;;;;;;10470493;28;20013;-74
2022/08/07 19:41:57;;;;;;;10.95;7.38;;;;;;;;;;10483863;28;20119;-75
2022/08/07 19:47:08;;;;;;;13.77;8.40;;;;;;;;;;10450862;28;20074;-74
2022/08/07 19:52:09;;;;;;;11.63;8.20;;;;;;;;;;10448041;28;20020;-74
2022/08/07 19:57:21;;;;;;;11.63;7.75;;;;;;;;;;10448245;28;20017;-73
2022/08/07 20:02:30;;;;;;;11.60;6.53;;;;;;;;;;10443289;28;20021;-74
2022/08/07 20:07:31;;;;;;;17.02;7.53;;;;;;;;;;10435746;28;20025;-74
2022/08/07 20:12:33;;;;;;;11.75;6.35;;;;;;;;;;10470321;28;20036;-74
2022/08/07 20:17:35;;;;;;;9.05;6.63;;;;;;;;;;10447690;28;20028;-74
2022/08/07 20:22:39;;;;;;;12.65;7.97;;;;;;;;;;10480178;28;20025;-75
2022/08/07 20:27:40;;;;;;;11.50;7.25;;;;;;;;;;10449857;28;20427;-73
2022/08/07 20:32:42;;;;;;;10.55;7.20;;;;;;;;;;10452574;28;20083;-73
2022/08/07 20:37:47;;;;;;;7.85;6.20;;;;;;;;;;10457986;28;20024;-74
2022/08/07 20:42:50;;;;;;;11.07;6.90;;;;;;;;;;10478763;28;20049;-73
2022/08/07 20:47:52;;;;;;;9.75;6.53;;;;;;;;;;10466078;28;20398;-74
2022/08/07 20:52:52;;;;;;;12.10;8.50;;;;;;;;;;10482246;28;20025;-74
2022/08/07 20:57:58;;;;;;;10.50;6.93;;;;;;;;;;10487931;28;20111;-74
2022/08/07 21:03:01;;;;;;;8.82;6.65;;;;;;;;;;10458630;28;20021;-74
2022/08/07 21:08:04;;;;;;;9.15;7.15;;;;;;;;;;10453501;28;20131;-74
2022/08/07 21:13:09;;;;;;;10.15;7.47;;;;;;;;;;10472751;28;20082;-73
2022/08/07 21:18:11;;;;;;;14.27;6.82;;;;;;;;;;10497540;28;20032;-74
2022/08/07 21:23:30;;;;;;;10.07;6.88;;;;;;;;;;10439875;28;20109;-73
2022/08/07 21:28:36;;;;;;;10.25;7.43;;;;;;;;;;10456256;28;20110;-74
2022/08/07 21:33:36;;;;;;;11.00;7.32;;;;;;;;;;10456142;28;20106;-74
2022/08/07 21:38:47;;;;;;;11.45;7.68;;;;;;;;;;10485505;28;20078;-74
2022/08/07 21:43:56;;;;;;;12.10;7.78;;;;;;;;;;10455048;28;20013;-74
2022/08/07 21:49:28;;;;;;;10.32;7.70;;;;;;;;;;10473012;28;20021;-74
2022/08/07 21:54:47;;;;;;;10.88;7.90;;;;;;;;;;10434141;28;20028;-74
2022/08/07 21:59:52;;;;;;;10.25;7.45;;;;;;;;;;10475955;28;20021;-73
2022/08/07 22:04:53;;;;;;;9.27;7.25;;;;;;;;;;10456371;28;20107;-73
2022/08/07 22:09:56;;;;;;;10.35;8.38;;;;;;;;;;10455819;28;20118;-74
2022/08/07 22:14:58;;;;;;;11.20;7.35;;;;;;;;;;10454754;28;20025;-74
2022/08/07 22:19:58;;;;;;;14.02;7.60;;;;;;;;;;10490408;28;20055;-73
2022/08/07 22:25:09;;;;;;;7.45;6.53;;;;;;;;;;10478210;28;20090;-74
2022/08/07 22:30:14;;;;;;;13.63;7.68;;;;;;;;;;10454375;28;20032;-74
2022/08/07 22:35:15;;;;;;;12.30;8.27;;;;;;;;;;10455283;28;20017;-74
2022/08/07 22:40:15;;;;;;;10.10;7.30;;;;;;;;;;10483942;28;20099;-75
2022/08/07 22:45:18;;;;;;;12.27;8.50;;;;;;;;;;10456226;28;20024;-74
2022/08/07 22:50:34;;;;;;;9.85;7.40;;;;;;;;;;10455778;28;20256;-74
2022/08/07 22:55:53;;;;;;;12.80;7.63;;;;;;;;;;10470635;28;20025;-74
2022/08/07 23:01:12;;;;;;;10.48;7.65;;;;;;;;;;10454316;28;20048;-74
2022/08/07 23:06:33;;;;;;;12.38;8.77;;;;;;;;;;10453960;28;20033;-75
2022/08/07 23:11:52;;;;;;;16.63;8.80;;;;;;;;;;10468134;28;20049;-74
2022/08/07 23:16:58;;;;;;;13.85;9.95;;;;;;;;;;10453671;28;20108;-74
2022/08/07 23:22:07;;;;;;;16.23;10.93;;;;;;;;;;10452075;28;20087;-75
2022/08/07 23:27:08;;;;;;;15.55;10.48;;;;;;;;;;10480107;28;20031;-75
2022/08/07 23:32:27;;;;;;;19.70;11.15;;;;;;;;;;10457924;28;20379;-76
2022/08/07 23:37:43;;;;;;;18.65;11.07;;;;;;;;;;10479740;28;20032;-74
2022/08/07 23:43:02;;;;;;;17.67;11.95;;;;;;;;;;10476392;28;20016;-74
2022/08/07 23:48:02;;;;;;;19.05;12.40;;;;;;;;;;10464697;28;20082;-74
2022/08/07 23:53:21;;;;;;;17.23;10.95;;;;;;;;;;10474320;28;20035;-74
2022/08/07 23:58:28;;;;;;;14.82;10.88;;;;;;;;;;10473578;28;20068;-74
